Terminal Aerodrome Forecast
Issued by NWS Twin Cities, MN

Home | Current Version | Previous Version | Graphics & Text | Print | Product List | Glossary Off
Versions: 1 2 3 4 5 6 7 8 9 10 11 12 13 14 15 16 17 18 19 20 21 22 23 24 25 26 27 28

044
FTUS43 KMPX 270520
TAFMSP
TAF
KMSP 270520Z 2706/2812 14003KT P6SM SCT030 OVC040
     FM270800 14004KT P6SM SCT080
     FM271900 17009KT P6SM BKN090
     FM280000 14008KT P6SM SCT060 OVC090
     FM280900 12007KT 5SM -DZ BR BKN008 OVC020=

USA.gov is the U.S. government's official web portal to all federal, state and local government web resources and services.